首页
METAR-TAF:

METAR-TAF

机场 :

多佛, 特拉华州, 美国

纬度: 39-08N, 经度: 075-28W, 海拔: 9米

当前天气观测

该预报发布于21分钟前的23:56 UTC
风速7节,风向
温度 27°C
湿度 70%
气压 1010 hPa
能見度: 16.1公里
多云层高于17000英尺

METAR: KDOV 242356Z AUTO 18007KT 10SM BKN170 27/21 A2982 RMK AO2 SLP101 T02690207 10311 20269 57006 $

时间: 20:17 (00:17 UTC)

预报

该预报发布于8小时和17分钟前的16:00 UTC
预报有效从24日的 16点(UTC)到 25日的 22点(UTC)
风速9节,风向南转西南
能见度10公里或以上
少量云层高于3000英尺
散云层高于13000英尺
多云层高于17000英尺
成为
从 24日的 19点(UTC)到 24日的 20点(UTC)
风速9节,风向南转西南
能见度10公里或以上
散云层高于3000英尺
多云层高于15000英尺
短暂存在
从 25日的 07点(UTC)到 25日的 10点(UTC)
能見度: 8000
多云层高于1500英尺
小阵雨
成为
从 25日的 13点(UTC)到 25日的 14点(UTC)
风速10节,风向西,有时为15节阵风
能见度10公里或以上
少量云层高于4000英尺
成为
从 25日的 17点(UTC)到 25日的 18点(UTC)
风速9节,风向西
能见度10公里或以上
天空无云

TAF: KDOV 241600Z 2416/2522 21009KT 9999 FEW030 SCT130 BKN170 QNH2983INS BECMG 2419/2420 20009KT 9999 SCT030 BKN150 QNH2976INS TEMPO 2507/2510 8000 -SHRA BKN015 BECMG 2513/2514 28010G15KT 9999 FEW040 QNH2985INS BECMG 2517/2518 27009KT 9999 SKC QNH2988INS TX30/2419Z TN22/2509Z

超过4000个机场的气象观测和天气预报(METAR&TAF报告)。

可查询的气象台以黄色和红色小点在地图上表示。

将鼠标移到小点上方,可查看气象台名称。

然后点击查看天气观测和预报。

如需切换地图:点击带黑十字的绿色按钮放大地图;点击带横线的绿色按钮缩小地图;或者点击绿色箭头查看邻近地区的地图。


METAR-TAF: